Time;durP1;ratioP1;P1;durP2;ratioP2;P2;SDS_P1;SDS_P2;PMS_P1;PMS_P2;Temp;Humidity;BMP_temperature;BMP_pressure;BME280_temperature;BME280_humidity;BME280_pressure;Samples;Min_cycle;Max_cycle;Signal;HPM_P1;HPM_P2
2021/12/16 04:53:50;;;;;;;2.22;2.13;;;1.20;99.90;;;;;;5705026;23;20319;-71
2021/12/16 04:56:18;;;;;;;1.40;1.38;;;1.20;99.90;;;;;;5013603;28;20301;-71
2021/12/16 04:58:48;;;;;;;1.80;1.77;;;1.30;99.90;;;;;;5012790;28;20622;-71
2021/12/16 05:01:15;;;;;;;2.60;2.00;;;1.30;99.90;;;;;;5013668;28;20631;-71
2021/12/16 05:03:43;;;;;;;2.42;2.33;;;1.20;99.90;;;;;;5013520;28;20790;-70
2021/12/16 05:06:11;;;;;;;2.22;2.13;;;1.20;99.90;;;;;;5014313;28;20288;-70
2021/12/16 05:08:38;;;;;;;1.77;1.77;;;1.20;99.90;;;;;;5013559;28;20293;-70
2021/12/16 05:11:11;;;;;;;2.47;2.28;;;1.30;99.90;;;;;;5014178;28;20285;-71
2021/12/16 05:13:38;;;;;;;2.03;1.95;;;1.30;99.90;;;;;;5013539;28;20226;-70
2021/12/16 05:16:06;;;;;;;2.45;2.13;;;1.30;99.90;;;;;;5013077;28;20296;-70
2021/12/16 05:18:37;;;;;;;2.70;2.50;;;1.30;99.90;;;;;;5013865;28;20244;-70
2021/12/16 05:21:07;;;;;;;2.47;2.38;;;1.30;99.90;;;;;;5013844;28;20209;-70
2021/12/16 05:26:21;;;;;;;1.80;1.75;;;1.30;99.90;;;;;;5013618;28;20185;-67
2021/12/16 05:28:52;;;;;;;2.03;1.92;;;1.30;99.90;;;;;;5013906;28;20202;-68
2021/12/16 05:31:21;;;;;;;1.80;1.80;;;1.30;99.90;;;;;;5013865;28;20189;-67
2021/12/16 05:33:49;;;;;;;1.48;1.48;;;1.40;99.90;;;;;;5013699;28;20336;-66
2021/12/16 05:36:16;;;;;;;1.60;1.60;;;1.40;99.90;;;;;;5013937;28;20228;-66
2021/12/16 05:38:44;;;;;;;1.73;1.73;;;1.40;99.90;;;;;;5013743;28;20285;-67
2021/12/16 05:41:14;;;;;;;1.50;1.50;;;1.40;99.90;;;;;;5013653;28;20312;-68
2021/12/16 05:43:42;;;;;;;1.80;1.70;;;1.50;99.90;;;;;;5014196;28;20319;-67
2021/12/16 05:46:11;;;;;;;1.40;1.30;;;1.40;99.90;;;;;;5014582;28;20236;-64
2021/12/16 05:48:42;;;;;;;1.80;1.80;;;1.40;99.90;;;;;;5013846;28;20853;-64
2021/12/16 05:51:11;;;;;;;1.55;1.55;;;1.40;99.90;;;;;;5013627;28;20183;-64
2021/12/16 05:53:40;;;;;;;1.50;1.50;;;1.40;99.90;;;;;;5013582;28;20312;-65
2021/12/16 05:56:07;;;;;;;1.50;1.50;;;1.40;99.90;;;;;;5013663;28;20293;-65
2021/12/16 05:58:36;;;;;;;2.00;1.90;;;1.40;99.90;;;;;;5013499;28;20632;-65
2021/12/16 06:01:07;;;;;;;1.60;1.60;;;1.40;99.90;;;;;;5013665;28;20207;-65
2021/12/16 06:03:34;;;;;;;1.85;1.75;;;1.40;99.90;;;;;;5013571;28;20313;-64
2021/12/16 06:06:02;;;;;;;1.63;1.63;;;1.40;99.90;;;;;;5013736;28;20293;-64
2021/12/16 06:08:29;;;;;;;1.52;1.52;;;1.40;99.90;;;;;;5014071;28;20230;-66
2021/12/16 06:11:14;;;;;;;1.90;1.80;;;1.40;99.90;;;;;;5017006;28;20288;-66
2021/12/16 06:13:47;;;;;;;1.70;1.70;;;1.40;99.90;;;;;;5017243;28;20226;-66
2021/12/16 06:27:16;;;;;;;2.33;2.17;;;1.30;99.90;;;;;;5016896;28;20636;-65
2021/12/16 06:29:48;;;;;;;2.65;2.45;;;1.30;99.90;;;;;;5016753;28;20301;-65
2021/12/16 06:32:17;;;;;;;2.90;2.70;;;1.30;99.90;;;;;;5016763;28;20273;-65
2021/12/16 06:34:45;;;;;;;3.08;2.65;;;1.30;99.90;;;;;;5016530;28;20308;-66
2021/12/16 06:37:13;;;;;;;2.22;2.13;;;1.40;99.90;;;;;;5016823;28;20297;-66
2021/12/16 06:39:40;;;;;;;2.17;2.08;;;1.40;99.90;;;;;;5016470;28;20312;-66
2021/12/16 06:42:09;;;;;;;1.88;1.88;;;1.40;99.90;;;;;;5016499;28;20305;-66
2021/12/16 06:44:44;;;;;;;2.25;2.15;;;1.40;99.90;;;;;;5016380;28;20230;-67
2021/12/16 06:47:16;;;;;;;2.03;1.92;;;1.40;99.90;;;;;;5016554;28;20181;-66
2021/12/16 06:49:46;;;;;;;2.05;1.95;;;1.40;99.90;;;;;;5016463;28;20278;-66
2021/12/16 06:52:16;;;;;;;2.33;2.22;;;1.50;99.90;;;;;;5016431;28;20193;-66
2021/12/16 06:54:59;;;;;;;2.88;2.67;;;1.50;99.90;;;;;;5016052;28;20234;-66
2021/12/16 06:57:37;;;;;;;2.80;2.63;;;1.50;99.90;;;;;;5016031;28;20206;-66
2021/12/16 07:00:10;;;;;;;4.03;3.72;;;1.50;99.90;;;;;;5016261;28;20743;-66
2021/12/16 07:02:47;;;;;;;3.08;2.88;;;1.50;99.90;;;;;;5016296;28;20202;-66
2021/12/16 07:05:18;;;;;;;3.10;2.90;;;1.60;99.90;;;;;;5015813;28;20592;-66
2021/12/16 07:07:45;;;;;;;3.13;2.90;;;1.60;99.90;;;;;;5015796;28;20740;-66
2021/12/16 07:10:14;;;;;;;3.10;2.90;;;1.60;99.90;;;;;;5016383;28;20285;-66
2021/12/16 07:12:47;;;;;;;3.00;2.80;;;1.60;99.90;;;;;;5016342;28;20301;-66
2021/12/16 07:15:17;;;;;;;2.58;2.47;;;1.70;99.90;;;;;;5016294;28;20222;-66
2021/12/16 07:17:44;;;;;;;2.10;2.00;;;1.70;99.90;;;;;;5015703;28;20305;-66
2021/12/16 07:20:15;;;;;;;2.10;2.00;;;1.80;99.90;;;;;;5015529;28;20313;-66
2021/12/16 07:22:43;;;;;;;2.22;2.13;;;1.80;99.90;;;;;;5015364;28;20289;-66
2021/12/16 07:25:11;;;;;;;2.30;2.20;;;1.80;99.90;;;;;;5015761;28;20289;-66
2021/12/16 07:27:37;;;;;;;2.08;2.00;;;1.80;99.90;;;;;;5015564;28;20297;-66
2021/12/16 07:30:07;;;;;;;1.88;1.83;;;1.80;99.90;;;;;;5015177;28;20625;-66
2021/12/16 07:32:35;;;;;;;1.80;1.80;;;1.80;99.90;;;;;;5015567;28;20289;-66
2021/12/16 07:35:02;;;;;;;1.88;1.88;;;1.90;99.90;;;;;;5015402;28;20320;-66
2021/12/16 07:37:29;;;;;;;1.60;1.60;;;1.90;99.90;;;;;;5015493;28;20299;-66
2021/12/16 07:39:59;;;;;;;1.73;1.63;;;1.90;99.90;;;;;;5015402;28;20333;-66
2021/12/16 07:42:31;;;;;;;1.60;1.60;;;2.00;99.90;;;;;;5015537;28;20221;-66
2021/12/16 07:44:58;;;;;;;1.73;1.73;;;2.00;99.90;;;;;;5015402;28;20309;-66
2021/12/16 07:47:25;;;;;;;1.70;1.60;;;2.00;99.90;;;;;;5015380;28;20297;-66
2021/12/16 07:49:52;;;;;;;1.58;1.58;;;2.00;99.90;;;;;;5015365;28;20305;-67
2021/12/16 07:52:21;;;;;;;1.50;1.50;;;2.00;99.90;;;;;;5014765;28;20740;-67
2021/12/16 07:54:48;;;;;;;1.33;1.33;;;2.10;99.90;;;;;;5014678;28;20266;-67
2021/12/16 07:57:17;;;;;;;1.40;1.40;;;2.10;99.90;;;;;;5015417;28;20182;-67
2021/12/16 07:59:44;;;;;;;1.50;1.50;;;2.20;99.90;;;;;;5015037;28;20292;-68
2021/12/16 08:02:11;;;;;;;1.38;1.38;;;2.30;99.90;;;;;;5014778;28;20301;-67
2021/12/16 08:04:42;;;;;;;1.70;1.70;;;2.30;99.90;;;;;;5014966;28;20228;-67
2021/12/16 08:07:13;;;;;;;1.27;1.27;;;2.30;99.90;;;;;;5015120;28;20190;-67
2021/12/16 08:09:41;;;;;;;1.58;1.58;;;2.40;99.90;;;;;;5015083;28;20248;-67
2021/12/16 08:12:12;;;;;;;1.45;1.45;;;2.40;99.90;;;;;;5014547;28;20617;-67
2021/12/16 08:14:40;;;;;;;1.42;1.42;;;2.40;99.90;;;;;;5014759;28;20308;-67
2021/12/16 08:17:08;;;;;;;1.40;1.40;;;2.40;99.90;;;;;;5014947;28;20300;-67
2021/12/16 08:19:35;;;;;;;1.60;1.60;;;2.40;99.90;;;;;;5014438;28;20760;-67
2021/12/16 08:22:02;;;;;;;1.70;1.60;;;2.40;99.90;;;;;;5014466;28;20312;-67
2021/12/16 08:24:29;;;;;;;2.90;2.10;;;2.40;99.90;;;;;;5015000;28;20317;-67
2021/12/16 08:26:56;;;;;;;2.10;2.00;;;2.30;99.90;;;;;;5014602;28;20288;-67
2021/12/16 08:29:24;;;;;;;1.98;1.88;;;2.30;99.90;;;;;;5014586;28;20300;-67
2021/12/16 08:31:53;;;;;;;1.90;1.80;;;2.30;99.90;;;;;;5014336;28;20194;-67
2021/12/16 08:34:20;;;;;;;3.05;2.75;;;2.40;99.90;;;;;;5014231;28;20313;-67
2021/12/16 08:36:48;;;;;;;2.80;2.50;;;2.40;99.90;;;;;;5014168;28;20293;-67
2021/12/16 08:39:15;;;;;;;2.90;2.60;;;2.30;99.90;;;;;;5014307;28;20292;-67
2021/12/16 08:41:45;;;;;;;3.03;2.83;;;2.40;99.90;;;;;;5014183;28;20229;-67
2021/12/16 08:44:15;;;;;;;5.53;3.63;;;2.40;99.90;;;;;;5014325;28;20757;-67
2021/12/16 08:46:46;;;;;;;3.45;3.15;;;2.30;99.90;;;;;;5014138;28;20281;-67
2021/12/16 08:49:15;;;;;;;3.05;2.83;;;2.30;99.90;;;;;;5014145;28;20234;-67
2021/12/16 08:51:45;;;;;;;3.35;3.13;;;2.30;99.90;;;;;;5014161;28;20289;-67
2021/12/16 08:54:12;;;;;;;3.45;3.17;;;2.40;99.90;;;;;;5013530;28;20309;-67
2021/12/16 08:56:39;;;;;;;2.90;2.58;;;2.40;99.90;;;;;;5014045;28;20237;-67
2021/12/16 08:59:08;;;;;;;2.85;2.65;;;2.50;99.90;;;;;;5014028;28;20288;-67
2021/12/16 09:01:38;;;;;;;2.38;2.28;;;2.60;99.90;;;;;;5014034;28;20317;-68
2021/12/16 09:04:05;;;;;;;2.70;2.58;;;2.50;99.90;;;;;;5013867;28;20320;-67
2021/12/16 09:06:34;;;;;;;2.65;2.50;;;2.50;99.90;;;;;;5013857;28;20289;-67
2021/12/16 09:09:01;;;;;;;2.03;1.92;;;2.50;99.90;;;;;;5013820;28;20289;-67
2021/12/16 09:11:32;;;;;;;3.25;2.40;;;2.50;99.90;;;;;;5013443;28;20638;-66
2021/12/16 09:14:01;;;;;;;2.42;2.30;;;2.60;99.90;;;;;;5013464;28;20301;-66
2021/12/16 09:16:31;;;;;;;2.28;2.17;;;2.60;99.90;;;;;;5013536;28;20549;-67
2021/12/16 09:18:59;;;;;;;2.45;2.35;;;2.60;99.90;;;;;;5013771;28;20293;-67
2021/12/16 09:21:29;;;;;;;2.13;2.03;;;2.60;99.90;;;;;;5013684;28;20316;-66
2021/12/16 09:23:58;;;;;;;2.35;2.25;;;2.70;99.90;;;;;;5013590;28;20327;-67
2021/12/16 09:26:26;;;;;;;2.67;2.58;;;2.70;99.90;;;;;;5013685;28;20294;-67
2021/12/16 09:28:54;;;;;;;2.83;2.63;;;2.70;99.90;;;;;;5013808;28;20297;-66
2021/12/16 09:31:25;;;;;;;2.67;2.58;;;2.70;99.90;;;;;;5013759;28;20252;-66
2021/12/16 09:33:55;;;;;;;2.40;2.30;;;2.80;99.90;;;;;;5013668;28;20269;-67
2021/12/16 09:36:26;;;;;;;2.20;2.10;;;2.80;99.90;;;;;;5013384;28;20202;-66
2021/12/16 09:38:56;;;;;;;2.78;2.58;;;2.80;99.90;;;;;;5013599;28;20186;-66
2021/12/16 09:41:26;;;;;;;2.20;2.00;;;2.80;99.90;;;;;;5013562;28;20217;-66
2021/12/16 09:43:54;;;;;;;2.33;2.13;;;2.80;99.90;;;;;;5013958;28;20225;-67
2021/12/16 09:46:25;;;;;;;2.38;2.28;;;2.80;99.90;;;;;;5017581;28;20296;-67
2021/12/16 09:48:54;;;;;;;2.22;2.13;;;2.80;99.90;;;;;;5017203;28;20708;-67
2021/12/16 09:51:25;;;;;;;2.03;1.92;;;2.80;99.90;;;;;;5017518;28;20232;-67
2021/12/16 09:53:54;;;;;;;2.55;2.35;;;2.80;99.90;;;;;;5017731;28;20675;-67
2021/12/16 09:56:23;;;;;;;2.60;2.40;;;2.80;99.90;;;;;;5017116;28;20304;-67
2021/12/16 09:58:52;;;;;;;2.80;2.65;;;2.80;99.90;;;;;;5016935;28;20666;-67
2021/12/16 10:01:21;;;;;;;2.30;2.20;;;2.80;99.90;;;;;;5017296;28;20351;-67
2021/12/16 10:03:51;;;;;;;2.33;2.13;;;2.90;99.90;;;;;;5017068;28;20231;-67
2021/12/16 10:06:19;;;;;;;2.10;2.00;;;2.90;99.90;;;;;;5017023;28;20301;-67
2021/12/16 10:08:47;;;;;;;2.20;2.10;;;3.00;99.90;;;;;;5016778;28;20622;-67
2021/12/16 10:11:15;;;;;;;2.13;2.03;;;3.10;99.90;;;;;;5016804;28;20658;-67
2021/12/16 10:13:47;;;;;;;2.03;1.92;;;3.10;99.90;;;;;;5016665;28;20768;-67
2021/12/16 10:19:00;;;;;;;1.70;1.70;;;3.10;99.90;;;;;;5016704;28;20188;-67
2021/12/16 10:21:28;;;;;;;1.63;1.52;;;3.10;99.90;;;;;;5016819;28;20313;-67
2021/12/16 10:23:55;;;;;;;2.22;2.13;;;3.10;99.90;;;;;;5016687;28;20222;-66
2021/12/16 10:26:25;;;;;;;2.47;2.28;;;3.10;99.90;;;;;;5016862;28;20292;-66
2021/12/16 10:28:56;;;;;;;2.17;2.08;;;3.00;99.90;;;;;;5016793;28;20289;-67
2021/12/16 10:31:27;;;;;;;2.25;2.15;;;3.00;99.90;;;;;;5016888;28;20187;-67
2021/12/16 10:33:58;;;;;;;1.90;1.90;;;3.10;99.90;;;;;;5016564;28;20328;-67
2021/12/16 10:36:27;;;;;;;2.10;2.00;;;3.10;99.90;;;;;;5016507;28;20212;-67
2021/12/16 10:38:59;;;;;;;1.80;1.70;;;3.10;99.90;;;;;;5016611;28;20289;-67
2021/12/16 10:41:29;;;;;;;2.25;2.15;;;3.20;99.90;;;;;;5016089;28;20206;-67
2021/12/16 10:44:03;;;;;;;1.83;1.73;;;3.20;99.90;;;;;;5016459;28;20230;-67
2021/12/16 10:46:34;;;;;;;2.20;2.15;;;3.20;99.90;;;;;;5016283;28;20292;-67
2021/12/16 10:49:06;;;;;;;1.83;1.73;;;3.20;99.90;;;;;;5016481;28;20292;-67
2021/12/16 10:51:35;;;;;;;1.65;1.65;;;3.20;99.90;;;;;;5016432;28;20277;-67
2021/12/16 10:54:14;;;;;;;2.40;2.15;;;3.20;99.90;;;;;;5016237;28;20316;-67
2021/12/16 10:57:02;;;;;;;1.98;1.88;;;3.20;99.90;;;;;;5014955;28;20281;-66
2021/12/16 10:59:36;;;;;;;2.28;2.17;;;3.20;99.90;;;;;;5016367;28;20208;-66
2021/12/16 11:02:23;;;;;;;2.78;2.67;;;3.20;99.90;;;;;;5015756;28;20647;-67
2021/12/16 11:04:52;;;;;;;3.22;3.03;;;3.10;99.90;;;;;;5015756;28;20309;-67
2021/12/16 11:07:24;;;;;;;2.75;2.53;;;3.20;99.90;;;;;;5016282;28;20252;-69
2021/12/16 11:09:55;;;;;;;3.25;3.05;;;3.20;99.90;;;;;;5015989;28;20274;-69
2021/12/16 11:12:41;;;;;;;3.13;2.90;;;3.20;99.90;;;;;;5016225;28;20189;-70
2021/12/16 11:15:13;;;;;;;3.17;2.97;;;3.20;99.90;;;;;;5015843;28;20305;-70
2021/12/16 11:17:44;;;;;;;2.47;2.38;;;3.30;99.90;;;;;;5015572;28;20650;-69
2021/12/16 11:20:29;;;;;;;2.42;2.33;;;3.30;99.90;;;;;;5016147;28;20277;-69
2021/12/16 11:22:59;;;;;;;2.70;2.50;;;3.30;99.90;;;;;;5015637;28;20313;-69
2021/12/16 11:25:30;;;;;;;2.40;2.30;;;3.40;99.90;;;;;;5016089;28;20609;-70
2021/12/16 11:28:07;;;;;;;2.63;2.53;;;3.30;99.90;;;;;;5015395;28;20230;-70
2021/12/16 11:30:38;;;;;;;2.55;2.45;;;3.40;99.90;;;;;;5015723;28;20274;-71
2021/12/16 11:33:13;;;;;;;2.67;2.58;;;3.40;99.90;;;;;;5015529;28;20311;-69
2021/12/16 11:35:44;;;;;;;2.45;2.35;;;3.40;99.90;;;;;;5015609;28;20411;-69
2021/12/16 11:38:17;;;;;;;2.65;2.55;;;3.40;99.90;;;;;;5015262;28;20218;-69
2021/12/16 11:41:01;;;;;;;2.53;2.33;;;3.40;99.90;;;;;;5015613;28;20274;-69
2021/12/16 11:43:56;;;;;;;2.40;2.30;;;3.40;99.90;;;;;;5015831;28;20649;-70
2021/12/16 11:46:27;;;;;;;2.20;2.10;;;3.50;99.90;;;;;;5008618;28;20293;-70
2021/12/16 11:48:58;;;;;;;2.53;2.42;;;3.50;99.90;;;;;;5015912;28;20273;-70
2021/12/16 11:51:30;;;;;;;2.60;2.40;;;3.50;99.90;;;;;;5015459;28;20269;-70
2021/12/16 11:54:00;;;;;;;3.38;3.08;;;3.50;99.90;;;;;;5015288;28;20309;-69
2021/12/16 11:56:42;;;;;;;2.90;2.70;;;3.50;99.90;;;;;;5014925;28;20301;-70
2021/12/16 11:59:10;;;;;;;2.78;2.58;;;3.50;99.90;;;;;;5014915;28;20682;-70
2021/12/16 12:01:39;;;;;;;2.80;2.60;;;3.50;99.90;;;;;;5015074;28;20316;-70
2021/12/16 12:04:10;;;;;;;2.92;2.72;;;3.40;99.90;;;;;;5015097;28;20308;-70
2021/12/16 12:06:40;;;;;;;2.47;2.38;;;3.40;99.90;;;;;;5014770;28;20273;-70
2021/12/16 12:09:09;;;;;;;2.83;2.70;;;3.40;99.90;;;;;;5014975;28;20209;-69
2021/12/16 12:11:40;;;;;;;3.05;2.85;;;3.30;99.90;;;;;;5014814;28;20638;-69
2021/12/16 12:14:09;;;;;;;3.15;2.95;;;3.30;99.90;;;;;;5016011;28;20249;-70
2021/12/16 12:16:39;;;;;;;3.05;2.85;;;3.30;99.90;;;;;;5015164;28;20240;-69
2021/12/16 12:19:15;;;;;;;3.08;2.97;;;3.30;99.90;;;;;;5016919;28;20202;-68
2021/12/16 12:21:45;;;;;;;2.97;2.67;;;3.30;99.90;;;;;;5017659;28;20629;-68
2021/12/16 12:24:16;;;;;;;3.55;3.33;;;3.30;99.90;;;;;;5016349;28;20273;-67
2021/12/16 12:26:48;;;;;;;3.58;3.17;;;3.20;99.90;;;;;;5015292;28;20273;-68
2021/12/16 12:29:18;;;;;;;3.33;3.13;;;3.30;99.90;;;;;;5014700;28;20282;-69
2021/12/16 12:31:48;;;;;;;2.30;2.20;;;3.30;99.90;;;;;;5014338;28;20280;-69
2021/12/16 12:34:19;;;;;;;3.00;2.80;;;3.40;99.90;;;;;;5014787;28;20281;-69
2021/12/16 12:36:49;;;;;;;2.58;2.47;;;3.40;99.90;;;;;;5017853;28;20190;-67
2021/12/16 12:39:19;;;;;;;3.40;2.90;;;3.40;99.90;;;;;;5017721;28;20225;-67
2021/12/16 12:41:48;;;;;;;3.17;3.05;;;3.40;99.90;;;;;;5017323;28;20217;-67
2021/12/16 12:44:16;;;;;;;2.80;2.70;;;3.40;99.90;;;;;;5017349;28;20226;-67
2021/12/16 12:46:44;;;;;;;3.00;2.80;;;3.40;99.90;;;;;;5017730;28;20210;-68
2021/12/16 12:49:16;;;;;;;3.25;3.05;;;3.50;99.90;;;;;;5017523;28;20201;-67
2021/12/16 12:51:48;;;;;;;3.22;3.03;;;3.60;99.90;;;;;;5016185;28;20182;-68
2021/12/16 12:54:25;;;;;;;3.33;3.13;;;3.60;99.90;;;;;;5013659;28;20661;-69
2021/12/16 12:56:54;;;;;;;3.00;2.80;;;3.60;99.90;;;;;;5013813;28;20277;-66
2021/12/16 12:59:32;;;;;;;2.58;2.47;;;3.70;99.90;;;;;;5014183;28;20233;-68
2021/12/16 13:01:59;;;;;;;3.03;2.80;;;3.70;99.90;;;;;;5013849;28;20748;-68
2021/12/16 13:04:31;;;;;;;2.92;2.72;;;3.80;99.90;;;;;;5014054;28;20253;-67
2021/12/16 13:07:03;;;;;;;3.53;3.33;;;3.80;99.90;;;;;;5014153;28;20290;-67
2021/12/16 13:09:41;;;;;;;4.07;3.78;;;3.80;99.90;;;;;;5014118;28;20240;-67
2021/12/16 13:12:35;;;;;;;4.30;3.90;;;3.80;99.90;;;;;;5013717;28;20225;-67
2021/12/16 13:15:11;;;;;;;4.00;3.70;;;3.80;99.90;;;;;;5013898;28;20230;-67
2021/12/16 13:24:04;;;;;;;2.90;2.70;;;3.70;99.90;;;;;;4940421;28;20220;-68
2021/12/16 13:26:39;;;;;;;2.92;2.83;;;3.60;99.90;;;;;;5013576;28;20634;-68
2021/12/16 13:29:14;;;;;;;3.70;3.40;;;3.70;99.90;;;;;;5013917;28;20189;-68
2021/12/16 13:31:50;;;;;;;4.65;4.07;;;3.70;99.90;;;;;;5013790;28;20189;-68
2021/12/16 13:34:32;;;;;;;4.78;4.38;;;3.70;99.90;;;;;;5013708;28;20218;-68
2021/12/16 13:37:07;;;;;;;5.38;4.28;;;3.70;99.90;;;;;;5013727;28;20268;-68
2021/12/16 13:39:44;;;;;;;4.55;4.10;;;3.60;99.90;;;;;;5013464;28;20616;-68
2021/12/16 13:42:15;;;;;;;3.90;3.60;;;3.60;99.90;;;;;;5013324;28;20293;-68
2021/12/16 13:44:50;;;;;;;3.63;3.33;;;3.60;99.90;;;;;;5013616;28;20252;-68
2021/12/16 13:47:30;;;;;;;3.42;3.15;;;3.50;99.90;;;;;;5013711;28;20192;-68
2021/12/16 14:01:56;;;;;;;3.15;2.95;;;3.50;99.90;;;;;;4989950;28;20198;-68
2021/12/16 14:07:29;;;;;;;3.10;2.90;;;3.50;99.90;;;;;;5011634;28;20194;-68
2021/12/16 14:10:05;;;;;;;3.38;3.17;;;3.50;99.90;;;;;;5013530;28;20190;-68
2021/12/16 14:15:23;;;;;;;3.70;3.40;;;3.50;99.90;;;;;;5013167;28;20232;-68
2021/12/16 14:17:57;;;;;;;3.47;3.20;;;3.50;99.90;;;;;;5013406;28;20190;-68
2021/12/16 14:23:25;;;;;;;3.53;3.22;;;3.50;99.90;;;;;;5013025;28;20229;-69
2021/12/16 14:31:53;;;;;;;3.25;3.00;;;3.60;99.90;;;;;;5015768;28;20248;-68
2021/12/16 14:37:28;;;;;;;2.78;2.60;;;3.60;99.90;;;;;;4999329;28;20549;-68
2021/12/16 14:40:28;;;;;;;2.50;2.40;;;3.60;99.90;;;;;;5016705;28;20190;-67
2021/12/16 14:43:14;;;;;;;2.75;2.65;;;3.70;99.90;;;;;;5016209;28;20636;-69
2021/12/16 14:45:46;;;;;;;2.53;2.33;;;3.70;99.90;;;;;;5016395;28;20182;-67
2021/12/16 14:48:28;;;;;;;2.60;2.40;;;3.70;99.90;;;;;;5016326;28;20745;-68
2021/12/16 14:50:59;;;;;;;2.45;2.35;;;3.80;99.90;;;;;;5016535;28;20201;-67
2021/12/16 14:53:30;;;;;;;2.67;2.47;;;3.80;99.90;;;;;;5016434;28;20305;-67
2021/12/16 14:56:00;;;;;;;2.58;2.30;;;3.70;99.90;;;;;;5016073;28;20639;-67
2021/12/16 14:58:27;;;;;;;4.57;2.80;;;3.70;99.90;;;;;;5016473;28;20218;-67
2021/12/16 15:00:59;;;;;;;2.83;2.72;;;3.70;99.90;;;;;;5015878;28;20633;-67
2021/12/16 15:03:29;;;;;;;2.78;2.58;;;3.70;99.90;;;;;;5015660;28;20761;-68
2021/12/16 15:05:59;;;;;;;2.90;2.70;;;3.70;99.90;;;;;;5015774;28;20630;-67
2021/12/16 15:08:34;;;;;;;2.20;2.10;;;3.70;99.90;;;;;;5016113;28;20201;-67
2021/12/16 15:11:04;;;;;;;2.47;2.38;;;3.70;99.90;;;;;;5016073;28;20186;-67
2021/12/16 15:13:37;;;;;;;3.08;2.88;;;3.70;99.90;;;;;;5015871;28;20313;-68
2021/12/16 15:16:22;;;;;;;3.13;2.90;;;3.70;99.90;;;;;;5016007;28;20203;-67
2021/12/16 15:43:49;;;;;;;2.75;2.58;;;3.50;99.90;;;;;;5014671;28;20689;-67
2021/12/16 15:46:16;;;;;;;2.70;2.58;;;3.50;99.90;;;;;;5015095;28;20626;-68
2021/12/16 15:48:48;;;;;;;3.35;3.15;;;3.50;99.90;;;;;;5015314;28;20292;-68
2021/12/16 15:51:16;;;;;;;3.05;2.85;;;3.50;99.90;;;;;;5015169;28;20202;-67
2021/12/16 15:53:45;;;;;;;3.65;3.35;;;3.50;99.90;;;;;;5014727;28;20701;-67
2021/12/16 15:56:15;;;;;;;3.38;3.10;;;3.40;99.90;;;;;;5014810;28;20317;-67
2021/12/16 15:58:45;;;;;;;2.85;2.67;;;3.40;99.90;;;;;;5015144;28;20277;-67
2021/12/16 16:01:15;;;;;;;3.80;3.50;;;3.40;99.90;;;;;;5015780;28;20289;-67
2021/12/16 16:03:45;;;;;;;2.53;2.40;;;3.40;99.90;;;;;;5014408;28;20327;-67
2021/12/16 16:06:14;;;;;;;2.85;2.70;;;3.40;99.90;;;;;;5014503;28;20293;-67
2021/12/16 16:08:46;;;;;;;2.25;2.15;;;3.40;99.90;;;;;;5014553;28;20280;-67
2021/12/16 16:11:15;;;;;;;2.50;2.40;;;3.40;99.90;;;;;;5014356;28;20182;-67
2021/12/16 16:13:48;;;;;;;2.10;1.90;;;3.40;99.90;;;;;;5014711;28;20309;-67
2021/12/16 16:16:18;;;;;;;2.20;2.10;;;3.40;99.90;;;;;;5014603;28;20186;-67
2021/12/16 16:18:55;;;;;;;2.75;2.65;;;3.40;99.90;;;;;;5014928;28;20204;-67
2021/12/16 16:21:27;;;;;;;2.33;2.20;;;3.40;99.90;;;;;;5015725;28;20182;-67
2021/12/16 16:23:57;;;;;;;2.33;2.22;;;3.40;99.90;;;;;;5014572;28;20253;-67
2021/12/16 16:26:26;;;;;;;2.03;1.92;;;3.40;99.90;;;;;;5014973;28;20273;-67
2021/12/16 16:28:59;;;;;;;1.70;1.70;;;3.40;99.90;;;;;;5014757;28;20285;-68
2021/12/16 16:31:27;;;;;;;1.40;1.40;;;3.40;99.90;;;;;;5014886;28;20277;-67
2021/12/16 16:33:56;;;;;;;1.92;1.83;;;3.40;99.90;;;;;;5014032;28;20390;-68
2021/12/16 16:36:26;;;;;;;1.70;1.60;;;3.30;99.90;;;;;;5014517;28;20298;-68
2021/12/16 16:38:55;;;;;;;1.75;1.75;;;3.30;99.90;;;;;;5014624;28;20206;-68
2021/12/16 16:41:25;;;;;;;1.67;1.67;;;3.30;99.90;;;;;;5014367;28;20297;-68
2021/12/16 16:43:54;;;;;;;1.40;1.40;;;3.30;99.90;;;;;;5014499;28;20292;-68
2021/12/16 16:46:30;;;;;;;1.80;1.80;;;3.30;99.90;;;;;;5014767;28;20213;-67
2021/12/16 16:49:09;;;;;;;1.60;1.60;;;3.30;99.90;;;;;;5014295;28;20244;-68
2021/12/16 16:51:43;;;;;;;1.17;1.17;;;3.30;99.90;;;;;;5013929;28;20185;-68
2021/12/16 16:54:18;;;;;;;1.30;1.30;;;3.30;99.90;;;;;;5014605;28;20308;-68
2021/12/16 16:56:53;;;;;;;1.20;1.20;;;3.30;99.90;;;;;;5013878;28;20194;-67
2021/12/16 16:59:28;;;;;;;1.55;1.55;;;3.30;99.90;;;;;;5014174;28;20186;-67
2021/12/16 17:01:55;;;;;;;1.95;1.85;;;3.30;99.90;;;;;;5014122;28;20247;-68
2021/12/16 17:04:23;;;;;;;1.55;1.55;;;3.30;99.90;;;;;;5013998;28;20308;-67
2021/12/16 17:06:56;;;;;;;1.77;1.67;;;3.30;99.90;;;;;;5014174;28;20234;-67
2021/12/16 17:09:24;;;;;;;1.52;1.52;;;3.30;99.90;;;;;;5014257;28;20194;-68
2021/12/16 17:11:54;;;;;;;1.95;1.85;;;3.30;99.90;;;;;;5014072;28;20252;-70
2021/12/16 17:14:33;;;;;;;1.50;1.50;;;3.30;99.90;;;;;;5013746;28;20690;-69
2021/12/16 17:17:13;;;;;;;1.48;1.48;;;3.30;99.90;;;;;;5014087;28;20194;-69
2021/12/16 17:19:45;;;;;;;1.70;1.65;;;3.30;99.90;;;;;;5014151;28;20244;-67
2021/12/16 17:22:13;;;;;;;1.67;1.67;;;3.30;99.90;;;;;;5014287;28;20278;-69
2021/12/16 17:24:46;;;;;;;1.40;1.40;;;3.30;99.90;;;;;;5014048;28;20317;-68
2021/12/16 17:27:18;;;;;;;1.73;1.73;;;3.30;99.90;;;;;;5014303;28;20224;-68
2021/12/16 17:29:52;;;;;;;1.90;1.80;;;3.30;99.90;;;;;;5013972;28;20190;-68
2021/12/16 17:32:22;;;;;;;1.65;1.65;;;3.30;99.90;;;;;;5013646;28;20282;-69
2021/12/16 17:34:55;;;;;;;1.45;1.45;;;3.20;99.90;;;;;;5013690;28;20316;-69
2021/12/16 17:37:25;;;;;;;1.88;1.77;;;3.20;99.90;;;;;;5013750;28;20654;-69
2021/12/16 17:39:55;;;;;;;1.80;1.70;;;3.20;99.90;;;;;;5013710;28;20269;-69
2021/12/16 17:42:25;;;;;;;1.45;1.45;;;3.20;99.90;;;;;;5014229;28;20625;-69
2021/12/16 17:44:58;;;;;;;1.73;1.73;;;3.20;99.90;;;;;;5013353;28;20312;-70
2021/12/16 17:47:30;;;;;;;2.03;1.92;;;3.20;99.90;;;;;;5014667;28;20190;-69
2021/12/16 17:49:59;;;;;;;2.05;1.95;;;3.20;99.90;;;;;;5013782;28;20270;-69
2021/12/16 17:52:30;;;;;;;2.28;2.08;;;3.20;99.90;;;;;;5013627;28;20301;-69
2021/12/16 17:55:01;;;;;;;1.92;1.83;;;3.20;99.90;;;;;;5013288;28;20230;-69
2021/12/16 17:57:32;;;;;;;1.60;1.60;;;3.20;99.90;;;;;;5013351;28;20225;-69
2021/12/16 17:59:59;;;;;;;1.50;1.50;;;3.20;99.90;;;;;;5013705;28;20277;-70
2021/12/16 18:02:27;;;;;;;2.00;1.90;;;3.20;99.90;;;;;;5013556;28;20294;-70
2021/12/16 18:04:56;;;;;;;1.60;1.50;;;3.20;99.90;;;;;;5013146;28;20661;-69
2021/12/16 18:07:27;;;;;;;1.60;1.50;;;3.20;99.90;;;;;;5016998;28;20304;-70
2021/12/16 18:09:54;;;;;;;1.52;1.52;;;3.20;99.90;;;;;;5016938;28;20256;-67
2021/12/16 18:12:25;;;;;;;1.55;1.55;;;3.20;99.90;;;;;;5017218;28;20269;-67
2021/12/16 18:14:57;;;;;;;1.95;1.85;;;3.20;99.90;;;;;;5016906;28;20693;-67
2021/12/16 18:17:27;;;;;;;1.48;1.40;;;3.20;99.90;;;;;;5016956;28;20621;-68
2021/12/16 18:19:57;;;;;;;1.55;1.55;;;3.10;99.90;;;;;;5016998;28;20693;-67
2021/12/16 18:22:28;;;;;;;1.42;1.42;;;3.10;99.90;;;;;;5017257;28;20198;-68
2021/12/16 18:24:58;;;;;;;1.40;1.40;;;3.00;99.90;;;;;;5016897;28;20313;-67
2021/12/16 18:27:28;;;;;;;1.73;1.63;;;3.00;99.90;;;;;;5016937;28;20224;-67
2021/12/16 18:30:01;;;;;;;1.90;1.80;;;2.90;99.90;;;;;;5017777;28;20270;-68
2021/12/16 18:32:35;;;;;;;1.58;1.50;;;2.80;99.90;;;;;;5017619;28;20190;-68
2021/12/16 18:35:05;;;;;;;1.60;1.50;;;2.80;99.90;;;;;;5016916;28;20655;-69
2021/12/16 18:37:35;;;;;;;1.70;1.60;;;2.70;99.90;;;;;;5017015;28;20288;-68
2021/12/16 18:40:04;;;;;;;1.48;1.48;;;2.60;99.90;;;;;;5016815;28;20277;-69
2021/12/16 18:42:33;;;;;;;1.98;1.88;;;2.50;99.90;;;;;;5016331;28;20292;-70
2021/12/16 18:45:02;;;;;;;1.50;1.50;;;2.40;99.90;;;;;;5016327;28;20229;-70
2021/12/16 18:47:37;;;;;;;1.83;1.80;;;2.40;99.90;;;;;;5016784;28;20202;-71
2021/12/16 18:50:14;;;;;;;1.60;1.60;;;2.30;99.90;;;;;;5016615;28;20273;-71
2021/12/16 18:54:28;;;;;;;1.38;1.38;;;2.20;99.90;;;;;;5017196;28;20205;-69
2021/12/16 18:55:37;;;;;;;1.80;1.70;;;2.20;99.90;;;;;;5015914;28;20213;-69
2021/12/16 18:58:04;;;;;;;1.70;1.70;;;2.10;99.90;;;;;;5016440;28;20300;-69
2021/12/16 19:00:32;;;;;;;1.50;1.50;;;2.10;99.90;;;;;;5016576;28;20293;-69
2021/12/16 19:02:59;;;;;;;1.73;1.63;;;2.00;99.90;;;;;;5016073;28;20241;-68
2021/12/16 19:05:26;;;;;;;1.50;1.50;;;2.00;99.90;;;;;;5015927;28;20288;-67
2021/12/16 19:07:54;;;;;;;1.90;1.80;;;2.00;99.90;;;;;;5016197;28;20292;-68
2021/12/16 19:10:26;;;;;;;1.40;1.40;;;1.90;99.90;;;;;;5016317;28;20293;-67
2021/12/16 19:12:53;;;;;;;1.50;1.50;;;1.80;99.90;;;;;;5016099;28;20237;-67
2021/12/16 19:15:24;;;;;;;1.40;1.40;;;1.80;99.90;;;;;;5015635;28;20650;-67
2021/12/16 19:17:51;;;;;;;1.70;1.65;;;1.70;99.90;;;;;;5014810;28;20269;-67
2021/12/16 19:20:22;;;;;;;1.63;1.60;;;1.70;99.90;;;;;;5015889;28;20630;-67
2021/12/16 19:22:49;;;;;;;1.50;1.50;;;1.70;99.90;;;;;;5015725;28;20618;-67
2021/12/16 19:25:18;;;;;;;1.63;1.63;;;1.70;99.90;;;;;;5015907;28;20320;-67
2021/12/16 19:27:45;;;;;;;1.30;1.30;;;1.60;99.90;;;;;;5015725;28;20198;-67